sensor_id;sensor_type;location;lat;lon;timestamp;P1;durP1;ratioP1;P2;durP2;ratioP2
4047;SDS011;2038;51.728;6.674;2023-01-08T00:02:18;2.70;;;2.20;;
4047;SDS011;2038;51.728;6.674;2023-01-08T00:04:45;4.20;;;2.67;;
4047;SDS011;2038;51.728;6.674;2023-01-08T00:07:11;2.83;;;2.37;;
4047;SDS011;2038;51.728;6.674;2023-01-08T00:09:38;4.10;;;2.50;;
4047;SDS011;2038;51.728;6.674;2023-01-08T00:12:04;7.83;;;2.93;;
4047;SDS011;2038;51.728;6.674;2023-01-08T00:14:30;3.07;;;2.50;;
4047;SDS011;2038;51.728;6.674;2023-01-08T00:16:56;2.50;;;2.30;;
4047;SDS011;2038;51.728;6.674;2023-01-08T00:19:23;3.73;;;2.53;;
4047;SDS011;2038;51.728;6.674;2023-01-08T00:21:49;3.07;;;2.10;;
4047;SDS011;2038;51.728;6.674;2023-01-08T00:24:15;3.50;;;2.30;;
4047;SDS011;2038;51.728;6.674;2023-01-08T00:26:41;4.13;;;2.50;;
4047;SDS011;2038;51.728;6.674;2023-01-08T00:29:07;3.30;;;2.40;;
4047;SDS011;2038;51.728;6.674;2023-01-08T00:31:34;3.33;;;3.03;;
4047;SDS011;2038;51.728;6.674;2023-01-08T00:34:00;2.40;;;2.20;;
4047;SDS011;2038;51.728;6.674;2023-01-08T00:36:26;2.80;;;2.40;;
4047;SDS011;2038;51.728;6.674;2023-01-08T00:38:52;3.93;;;2.70;;
4047;SDS011;2038;51.728;6.674;2023-01-08T00:41:18;3.03;;;2.20;;
4047;SDS011;2038;51.728;6.674;2023-01-08T00:43:45;2.00;;;1.83;;
4047;SDS011;2038;51.728;6.674;2023-01-08T00:46:11;3.63;;;3.33;;
4047;SDS011;2038;51.728;6.674;2023-01-08T00:48:37;2.70;;;2.47;;
4047;SDS011;2038;51.728;6.674;2023-01-08T00:51:04;3.53;;;2.73;;
4047;SDS011;2038;51.728;6.674;2023-01-08T00:53:32;2.40;;;2.03;;
4047;SDS011;2038;51.728;6.674;2023-01-08T00:56:00;6.33;;;2.50;;
4047;SDS011;2038;51.728;6.674;2023-01-08T00:58:29;3.60;;;3.20;;
4047;SDS011;2038;51.728;6.674;2023-01-08T01:00:55;2.70;;;2.17;;
4047;SDS011;2038;51.728;6.674;2023-01-08T01:03:22;3.20;;;2.83;;
4047;SDS011;2038;51.728;6.674;2023-01-08T01:05:48;3.13;;;2.83;;
4047;SDS011;2038;51.728;6.674;2023-01-08T01:08:15;3.27;;;2.40;;
4047;SDS011;2038;51.728;6.674;2023-01-08T01:10:41;2.83;;;2.63;;
4047;SDS011;2038;51.728;6.674;2023-01-08T01:13:07;3.10;;;2.70;;
4047;SDS011;2038;51.728;6.674;2023-01-08T01:15:34;2.53;;;2.33;;
4047;SDS011;2038;51.728;6.674;2023-01-08T01:18:01;3.00;;;2.60;;
4047;SDS011;2038;51.728;6.674;2023-01-08T01:20:27;4.50;;;2.70;;
4047;SDS011;2038;51.728;6.674;2023-01-08T01:22:53;3.70;;;2.70;;
4047;SDS011;2038;51.728;6.674;2023-01-08T01:25:20;5.07;;;2.40;;
4047;SDS011;2038;51.728;6.674;2023-01-08T01:27:46;4.40;;;2.43;;
4047;SDS011;2038;51.728;6.674;2023-01-08T01:30:12;4.23;;;2.57;;
4047;SDS011;2038;51.728;6.674;2023-01-08T01:32:38;2.73;;;2.47;;
4047;SDS011;2038;51.728;6.674;2023-01-08T01:35:05;4.03;;;2.87;;
4047;SDS011;2038;51.728;6.674;2023-01-08T01:37:31;3.47;;;2.50;;
4047;SDS011;2038;51.728;6.674;2023-01-08T01:39:58;3.57;;;2.80;;
4047;SDS011;2038;51.728;6.674;2023-01-08T01:42:24;3.13;;;2.73;;
4047;SDS011;2038;51.728;6.674;2023-01-08T01:47:56;3.47;;;2.50;;
4047;SDS011;2038;51.728;6.674;2023-01-08T01:50:31;4.27;;;3.47;;
4047;SDS011;2038;51.728;6.674;2023-01-08T01:53:10;4.53;;;3.37;;
4047;SDS011;2038;51.728;6.674;2023-01-08T01:55:43;7.37;;;3.10;;
4047;SDS011;2038;51.728;6.674;2023-01-08T01:58:15;3.27;;;2.80;;
4047;SDS011;2038;51.728;6.674;2023-01-08T02:00:50;5.20;;;2.63;;
4047;SDS011;2038;51.728;6.674;2023-01-08T02:03:22;3.50;;;3.20;;
4047;SDS011;2038;51.728;6.674;2023-01-08T02:09:00;5.90;;;3.80;;
4047;SDS011;2038;51.728;6.674;2023-01-08T02:11:36;4.80;;;3.10;;
4047;SDS011;2038;51.728;6.674;2023-01-08T02:14:51;8.87;;;3.33;;
4047;SDS011;2038;51.728;6.674;2023-01-08T02:20:27;4.90;;;4.00;;
4047;SDS011;2038;51.728;6.674;2023-01-08T02:26:05;3.83;;;3.30;;
4047;SDS011;2038;51.728;6.674;2023-01-08T02:28:53;4.83;;;2.83;;
4047;SDS011;2038;51.728;6.674;2023-01-08T02:31:29;4.20;;;3.30;;
4047;SDS011;2038;51.728;6.674;2023-01-08T02:33:58;4.47;;;3.20;;
4047;SDS011;2038;51.728;6.674;2023-01-08T02:42:05;6.70;;;3.47;;
4047;SDS011;2038;51.728;6.674;2023-01-08T02:50:58;3.80;;;3.50;;
4047;SDS011;2038;51.728;6.674;2023-01-08T02:53:42;7.90;;;3.00;;
4047;SDS011;2038;51.728;6.674;2023-01-08T02:56:16;4.40;;;3.00;;
4047;SDS011;2038;51.728;6.674;2023-01-08T02:58:48;4.90;;;3.70;;
4047;SDS011;2038;51.728;6.674;2023-01-08T03:01:18;5.57;;;3.37;;
4047;SDS011;2038;51.728;6.674;2023-01-08T03:03:48;5.10;;;2.60;;
4047;SDS011;2038;51.728;6.674;2023-01-08T03:06:31;3.83;;;2.77;;
4047;SDS011;2038;51.728;6.674;2023-01-08T03:08:58;4.70;;;3.80;;
4047;SDS011;2038;51.728;6.674;2023-01-08T03:11:27;4.17;;;2.50;;
4047;SDS011;2038;51.728;6.674;2023-01-08T03:14:03;3.70;;;2.80;;
4047;SDS011;2038;51.728;6.674;2023-01-08T03:16:39;3.17;;;2.83;;
4047;SDS011;2038;51.728;6.674;2023-01-08T03:19:12;4.83;;;3.17;;
4047;SDS011;2038;51.728;6.674;2023-01-08T03:21:50;3.97;;;3.03;;
4047;SDS011;2038;51.728;6.674;2023-01-08T03:24:19;5.60;;;3.63;;
4047;SDS011;2038;51.728;6.674;2023-01-08T03:26:55;3.50;;;3.20;;
4047;SDS011;2038;51.728;6.674;2023-01-08T03:29:28;2.80;;;2.53;;
4047;SDS011;2038;51.728;6.674;2023-01-08T03:32:02;4.40;;;2.87;;
4047;SDS011;2038;51.728;6.674;2023-01-08T03:34:35;8.13;;;2.97;;
4047;SDS011;2038;51.728;6.674;2023-01-08T03:37:08;4.80;;;3.20;;
4047;SDS011;2038;51.728;6.674;2023-01-08T03:39:46;4.70;;;3.13;;
4047;SDS011;2038;51.728;6.674;2023-01-08T03:42:24;5.67;;;3.57;;
4047;SDS011;2038;51.728;6.674;2023-01-08T03:44:54;4.93;;;3.00;;
4047;SDS011;2038;51.728;6.674;2023-01-08T03:47:21;5.00;;;3.90;;
4047;SDS011;2038;51.728;6.674;2023-01-08T03:49:53;8.90;;;3.37;;
4047;SDS011;2038;51.728;6.674;2023-01-08T03:52:24;4.33;;;3.50;;
4047;SDS011;2038;51.728;6.674;2023-01-08T03:54:56;3.07;;;2.77;;
4047;SDS011;2038;51.728;6.674;2023-01-08T03:57:23;6.67;;;3.33;;
4047;SDS011;2038;51.728;6.674;2023-01-08T03:59:49;6.40;;;3.97;;
4047;SDS011;2038;51.728;6.674;2023-01-08T04:02:16;3.50;;;2.83;;
4047;SDS011;2038;51.728;6.674;2023-01-08T04:04:42;4.10;;;3.30;;
4047;SDS011;2038;51.728;6.674;2023-01-08T04:07:11;6.13;;;3.17;;
4047;SDS011;2038;51.728;6.674;2023-01-08T04:09:38;4.07;;;3.40;;
4047;SDS011;2038;51.728;6.674;2023-01-08T04:12:04;4.80;;;2.60;;
4047;SDS011;2038;51.728;6.674;2023-01-08T04:14:31;7.03;;;3.00;;
4047;SDS011;2038;51.728;6.674;2023-01-08T04:16:57;8.40;;;3.47;;
4047;SDS011;2038;51.728;6.674;2023-01-08T04:19:23;2.70;;;2.43;;
4047;SDS011;2038;51.728;6.674;2023-01-08T04:21:50;2.83;;;1.50;;
4047;SDS011;2038;51.728;6.674;2023-01-08T04:24:17;2.63;;;1.63;;
4047;SDS011;2038;51.728;6.674;2023-01-08T04:26:44;1.93;;;1.50;;
4047;SDS011;2038;51.728;6.674;2023-01-08T04:29:10;3.10;;;1.60;;
4047;SDS011;2038;51.728;6.674;2023-01-08T04:31:38;3.33;;;1.70;;
4047;SDS011;2038;51.728;6.674;2023-01-08T04:34:04;2.43;;;1.70;;
4047;SDS011;2038;51.728;6.674;2023-01-08T04:36:31;6.60;;;1.60;;
4047;SDS011;2038;51.728;6.674;2023-01-08T04:38:57;3.83;;;1.87;;
4047;SDS011;2038;51.728;6.674;2023-01-08T04:41:23;1.37;;;1.27;;
4047;SDS011;2038;51.728;6.674;2023-01-08T04:43:49;3.70;;;1.60;;
4047;SDS011;2038;51.728;6.674;2023-01-08T04:46:15;3.03;;;2.20;;
4047;SDS011;2038;51.728;6.674;2023-01-08T04:48:42;13.93;;;1.83;;
4047;SDS011;2038;51.728;6.674;2023-01-08T04:51:08;7.60;;;1.77;;
4047;SDS011;2038;51.728;6.674;2023-01-08T04:53:35;4.50;;;2.03;;
4047;SDS011;2038;51.728;6.674;2023-01-08T04:56:06;3.93;;;1.13;;
4047;SDS011;2038;51.728;6.674;2023-01-08T04:58:34;2.63;;;1.20;;
4047;SDS011;2038;51.728;6.674;2023-01-08T05:01:09;1.43;;;1.30;;
4047;SDS011;2038;51.728;6.674;2023-01-08T05:03:44;2.03;;;0.90;;
4047;SDS011;2038;51.728;6.674;2023-01-08T05:06:10;4.83;;;1.57;;
4047;SDS011;2038;51.728;6.674;2023-01-08T05:08:37;5.93;;;1.80;;
4047;SDS011;2038;51.728;6.674;2023-01-08T05:11:03;2.63;;;1.50;;
4047;SDS011;2038;51.728;6.674;2023-01-08T05:13:29;1.53;;;1.23;;
4047;SDS011;2038;51.728;6.674;2023-01-08T05:15:58;1.73;;;1.20;;
4047;SDS011;2038;51.728;6.674;2023-01-08T05:18:25;1.50;;;1.40;;
4047;SDS011;2038;51.728;6.674;2023-01-08T05:20:53;2.03;;;1.53;;
4047;SDS011;2038;51.728;6.674;2023-01-08T05:23:24;1.63;;;1.23;;
4047;SDS011;2038;51.728;6.674;2023-01-08T05:25:50;1.60;;;1.50;;
4047;SDS011;2038;51.728;6.674;2023-01-08T05:28:16;8.67;;;1.80;;
4047;SDS011;2038;51.728;6.674;2023-01-08T05:30:42;1.80;;;1.60;;
4047;SDS011;2038;51.728;6.674;2023-01-08T05:33:08;2.57;;;1.70;;
4047;SDS011;2038;51.728;6.674;2023-01-08T05:35:37;2.70;;;1.70;;
4047;SDS011;2038;51.728;6.674;2023-01-08T05:38:04;3.37;;;1.33;;
4047;SDS011;2038;51.728;6.674;2023-01-08T05:40:30;4.40;;;2.20;;
4047;SDS011;2038;51.728;6.674;2023-01-08T05:43:00;2.20;;;2.10;;
4047;SDS011;2038;51.728;6.674;2023-01-08T05:45:26;2.73;;;2.10;;
4047;SDS011;2038;51.728;6.674;2023-01-08T05:47:53;2.80;;;1.90;;
4047;SDS011;2038;51.728;6.674;2023-01-08T05:50:19;4.10;;;2.13;;
4047;SDS011;2038;51.728;6.674;2023-01-08T05:52:45;3.17;;;2.40;;
4047;SDS011;2038;51.728;6.674;2023-01-08T05:55:12;4.50;;;2.70;;
4047;SDS011;2038;51.728;6.674;2023-01-08T05:57:38;4.10;;;2.80;;
4047;SDS011;2038;51.728;6.674;2023-01-08T06:00:05;3.10;;;1.97;;
4047;SDS011;2038;51.728;6.674;2023-01-08T06:02:33;4.00;;;3.43;;
4047;SDS011;2038;51.728;6.674;2023-01-08T06:05:00;2.20;;;1.70;;
4047;SDS011;2038;51.728;6.674;2023-01-08T06:07:29;4.73;;;2.83;;
4047;SDS011;2038;51.728;6.674;2023-01-08T06:09:55;2.70;;;2.50;;
4047;SDS011;2038;51.728;6.674;2023-01-08T06:12:22;5.53;;;2.33;;
4047;SDS011;2038;51.728;6.674;2023-01-08T06:14:48;5.30;;;2.93;;
4047;SDS011;2038;51.728;6.674;2023-01-08T06:17:15;4.57;;;3.37;;
4047;SDS011;2038;51.728;6.674;2023-01-08T06:19:41;3.53;;;2.63;;
4047;SDS011;2038;51.728;6.674;2023-01-08T06:22:07;3.53;;;2.63;;
4047;SDS011;2038;51.728;6.674;2023-01-08T06:24:33;3.50;;;2.30;;
4047;SDS011;2038;51.728;6.674;2023-01-08T06:26:59;5.80;;;2.90;;
4047;SDS011;2038;51.728;6.674;2023-01-08T06:29:26;5.43;;;2.80;;
4047;SDS011;2038;51.728;6.674;2023-01-08T06:31:52;3.20;;;2.87;;
4047;SDS011;2038;51.728;6.674;2023-01-08T06:34:18;6.23;;;2.90;;
4047;SDS011;2038;51.728;6.674;2023-01-08T06:36:45;2.60;;;2.40;;
4047;SDS011;2038;51.728;6.674;2023-01-08T06:39:11;4.10;;;2.50;;
4047;SDS011;2038;51.728;6.674;2023-01-08T06:41:37;4.10;;;3.13;;
4047;SDS011;2038;51.728;6.674;2023-01-08T06:44:03;4.00;;;2.47;;
4047;SDS011;2038;51.728;6.674;2023-01-08T06:46:30;4.40;;;2.10;;
4047;SDS011;2038;51.728;6.674;2023-01-08T06:48:56;2.10;;;1.90;;
4047;SDS011;2038;51.728;6.674;2023-01-08T06:51:22;2.20;;;2.00;;
4047;SDS011;2038;51.728;6.674;2023-01-08T06:53:48;2.27;;;2.07;;
4047;SDS011;2038;51.728;6.674;2023-01-08T06:56:14;5.03;;;1.90;;
4047;SDS011;2038;51.728;6.674;2023-01-08T06:58:41;6.13;;;2.30;;
4047;SDS011;2038;51.728;6.674;2023-01-08T07:01:09;2.20;;;2.10;;
4047;SDS011;2038;51.728;6.674;2023-01-08T07:03:39;6.90;;;2.47;;
4047;SDS011;2038;51.728;6.674;2023-01-08T07:06:06;2.20;;;1.93;;
4047;SDS011;2038;51.728;6.674;2023-01-08T07:08:42;2.50;;;1.60;;
4047;SDS011;2038;51.728;6.674;2023-01-08T07:11:09;2.80;;;1.83;;
4047;SDS011;2038;51.728;6.674;2023-01-08T07:13:36;8.83;;;1.73;;
4047;SDS011;2038;51.728;6.674;2023-01-08T07:16:06;3.47;;;2.10;;
4047;SDS011;2038;51.728;6.674;2023-01-08T07:18:37;5.10;;;1.70;;
4047;SDS011;2038;51.728;6.674;2023-01-08T07:21:05;2.87;;;1.70;;
4047;SDS011;2038;51.728;6.674;2023-01-08T07:23:32;5.90;;;1.80;;
4047;SDS011;2038;51.728;6.674;2023-01-08T07:25:59;1.30;;;1.20;;
4047;SDS011;2038;51.728;6.674;2023-01-08T07:28:28;2.20;;;1.30;;
4047;SDS011;2038;51.728;6.674;2023-01-08T07:30:54;1.80;;;1.20;;
4047;SDS011;2038;51.728;6.674;2023-01-08T07:33:21;4.30;;;1.93;;
4047;SDS011;2038;51.728;6.674;2023-01-08T07:35:51;1.73;;;1.47;;
4047;SDS011;2038;51.728;6.674;2023-01-08T07:38:18;2.87;;;1.30;;
4047;SDS011;2038;51.728;6.674;2023-01-08T07:40:44;6.03;;;1.40;;
4047;SDS011;2038;51.728;6.674;2023-01-08T07:43:10;1.90;;;1.40;;
4047;SDS011;2038;51.728;6.674;2023-01-08T07:45:37;2.40;;;1.40;;
4047;SDS011;2038;51.728;6.674;2023-01-08T07:48:03;3.23;;;1.70;;
4047;SDS011;2038;51.728;6.674;2023-01-08T07:50:31;3.17;;;1.53;;
4047;SDS011;2038;51.728;6.674;2023-01-08T07:52:58;2.43;;;1.53;;
4047;SDS011;2038;51.728;6.674;2023-01-08T07:55:25;6.00;;;1.20;;
4047;SDS011;2038;51.728;6.674;2023-01-08T07:57:54;3.40;;;1.23;;
4047;SDS011;2038;51.728;6.674;2023-01-08T08:00:21;1.80;;;1.13;;
4047;SDS011;2038;51.728;6.674;2023-01-08T08:02:47;2.50;;;1.50;;
4047;SDS011;2038;51.728;6.674;2023-01-08T08:05:13;2.70;;;1.17;;
4047;SDS011;2038;51.728;6.674;2023-01-08T08:07:41;2.90;;;1.40;;
4047;SDS011;2038;51.728;6.674;2023-01-08T08:10:08;1.50;;;1.40;;
4047;SDS011;2038;51.728;6.674;2023-01-08T08:12:36;1.67;;;1.20;;
4047;SDS011;2038;51.728;6.674;2023-01-08T08:15:02;2.77;;;1.40;;
4047;SDS011;2038;51.728;6.674;2023-01-08T08:17:29;4.10;;;1.63;;
4047;SDS011;2038;51.728;6.674;2023-01-08T08:19:54;2.50;;;1.53;;
4047;SDS011;2038;51.728;6.674;2023-01-08T08:22:22;12.43;;;1.37;;
4047;SDS011;2038;51.728;6.674;2023-01-08T08:24:51;3.60;;;1.40;;
4047;SDS011;2038;51.728;6.674;2023-01-08T08:27:17;5.17;;;1.70;;
4047;SDS011;2038;51.728;6.674;2023-01-08T08:29:43;5.00;;;1.70;;
4047;SDS011;2038;51.728;6.674;2023-01-08T08:32:10;4.20;;;2.10;;
4047;SDS011;2038;51.728;6.674;2023-01-08T08:34:36;2.33;;;1.37;;
4047;SDS011;2038;51.728;6.674;2023-01-08T08:37:02;1.50;;;1.30;;
4047;SDS011;2038;51.728;6.674;2023-01-08T08:39:28;1.77;;;1.67;;
4047;SDS011;2038;51.728;6.674;2023-01-08T08:41:54;7.37;;;2.33;;
4047;SDS011;2038;51.728;6.674;2023-01-08T08:44:20;2.27;;;1.80;;
4047;SDS011;2038;51.728;6.674;2023-01-08T08:46:47;5.13;;;2.00;;
4047;SDS011;2038;51.728;6.674;2023-01-08T08:49:16;3.87;;;1.67;;
4047;SDS011;2038;51.728;6.674;2023-01-08T08:51:42;5.57;;;1.93;;
4047;SDS011;2038;51.728;6.674;2023-01-08T08:54:09;6.33;;;2.10;;
4047;SDS011;2038;51.728;6.674;2023-01-08T08:56:35;5.77;;;1.53;;
4047;SDS011;2038;51.728;6.674;2023-01-08T08:59:04;7.23;;;1.80;;
4047;SDS011;2038;51.728;6.674;2023-01-08T09:01:33;11.33;;;3.10;;
4047;SDS011;2038;51.728;6.674;2023-01-08T09:03:59;4.17;;;1.60;;
4047;SDS011;2038;51.728;6.674;2023-01-08T09:06:25;5.03;;;2.30;;
4047;SDS011;2038;51.728;6.674;2023-01-08T09:08:51;9.43;;;2.13;;
4047;SDS011;2038;51.728;6.674;2023-01-08T09:11:19;5.57;;;2.00;;
4047;SDS011;2038;51.728;6.674;2023-01-08T09:13:45;10.03;;;2.70;;
4047;SDS011;2038;51.728;6.674;2023-01-08T09:16:11;8.60;;;1.80;;
4047;SDS011;2038;51.728;6.674;2023-01-08T09:18:38;4.40;;;2.40;;
4047;SDS011;2038;51.728;6.674;2023-01-08T09:21:04;5.13;;;2.23;;
4047;SDS011;2038;51.728;6.674;2023-01-08T09:23:33;7.17;;;2.13;;
4047;SDS011;2038;51.728;6.674;2023-01-08T09:25:59;10.90;;;2.10;;
4047;SDS011;2038;51.728;6.674;2023-01-08T09:28:27;5.90;;;2.07;;
4047;SDS011;2038;51.728;6.674;2023-01-08T09:30:54;8.23;;;2.30;;
4047;SDS011;2038;51.728;6.674;2023-01-08T09:33:24;11.73;;;2.80;;
4047;SDS011;2038;51.728;6.674;2023-01-08T09:35:50;10.27;;;2.10;;
4047;SDS011;2038;51.728;6.674;2023-01-08T09:38:17;4.47;;;2.10;;
4047;SDS011;2038;51.728;6.674;2023-01-08T09:41:02;8.83;;;1.90;;
4047;SDS011;2038;51.728;6.674;2023-01-08T09:43:40;6.00;;;2.00;;
4047;SDS011;2038;51.728;6.674;2023-01-08T09:46:12;3.20;;;1.87;;
4047;SDS011;2038;51.728;6.674;2023-01-08T09:48:43;15.50;;;2.87;;
4047;SDS011;2038;51.728;6.674;2023-01-08T09:51:14;5.37;;;1.90;;
4047;SDS011;2038;51.728;6.674;2023-01-08T09:53:43;7.63;;;2.70;;
4047;SDS011;2038;51.728;6.674;2023-01-08T09:56:15;12.33;;;3.47;;
4047;SDS011;2038;51.728;6.674;2023-01-08T09:58:44;4.20;;;2.30;;
4047;SDS011;2038;51.728;6.674;2023-01-08T10:01:19;13.30;;;2.67;;
4047;SDS011;2038;51.728;6.674;2023-01-08T10:04:03;10.33;;;3.10;;
4047;SDS011;2038;51.728;6.674;2023-01-08T10:07:05;9.77;;;4.10;;
4047;SDS011;2038;51.728;6.674;2023-01-08T10:09:48;13.70;;;2.63;;
4047;SDS011;2038;51.728;6.674;2023-01-08T10:12:34;8.63;;;2.67;;
4047;SDS011;2038;51.728;6.674;2023-01-08T10:15:01;10.80;;;2.90;;
4047;SDS011;2038;51.728;6.674;2023-01-08T10:17:38;11.43;;;2.57;;
4047;SDS011;2038;51.728;6.674;2023-01-08T10:20:20;4.37;;;2.43;;
4047;SDS011;2038;51.728;6.674;2023-01-08T10:22:49;9.03;;;2.47;;
4047;SDS011;2038;51.728;6.674;2023-01-08T10:25:23;6.53;;;1.87;;
4047;SDS011;2038;51.728;6.674;2023-01-08T10:27:53;7.50;;;2.47;;
4047;SDS011;2038;51.728;6.674;2023-01-08T10:30:34;8.03;;;2.80;;
4047;SDS011;2038;51.728;6.674;2023-01-08T10:33:04;9.80;;;2.00;;
4047;SDS011;2038;51.728;6.674;2023-01-08T10:35:40;9.40;;;2.90;;
4047;SDS011;2038;51.728;6.674;2023-01-08T10:38:22;7.00;;;2.60;;
4047;SDS011;2038;51.728;6.674;2023-01-08T10:40:57;9.30;;;2.40;;
4047;SDS011;2038;51.728;6.674;2023-01-08T10:43:29;6.30;;;2.33;;
4047;SDS011;2038;51.728;6.674;2023-01-08T10:46:24;7.70;;;2.20;;
4047;SDS011;2038;51.728;6.674;2023-01-08T10:48:57;11.00;;;2.00;;
4047;SDS011;2038;51.728;6.674;2023-01-08T10:51:31;8.73;;;2.00;;
4047;SDS011;2038;51.728;6.674;2023-01-08T10:53:59;5.40;;;2.10;;
4047;SDS011;2038;51.728;6.674;2023-01-08T10:56:42;7.60;;;2.23;;
4047;SDS011;2038;51.728;6.674;2023-01-08T10:59:18;4.77;;;1.83;;
4047;SDS011;2038;51.728;6.674;2023-01-08T11:01:47;13.00;;;2.60;;
4047;SDS011;2038;51.728;6.674;2023-01-08T11:04:27;4.67;;;1.93;;
4047;SDS011;2038;51.728;6.674;2023-01-08T11:07:01;3.40;;;2.40;;
4047;SDS011;2038;51.728;6.674;2023-01-08T11:09:31;5.10;;;2.33;;
4047;SDS011;2038;51.728;6.674;2023-01-08T11:12:31;6.83;;;2.20;;
4047;SDS011;2038;51.728;6.674;2023-01-08T11:15:03;11.40;;;2.33;;
4047;SDS011;2038;51.728;6.674;2023-01-08T11:17:52;11.10;;;2.47;;
4047;SDS011;2038;51.728;6.674;2023-01-08T11:20:22;7.00;;;2.50;;
4047;SDS011;2038;51.728;6.674;2023-01-08T11:25:51;5.80;;;2.57;;
4047;SDS011;2038;51.728;6.674;2023-01-08T11:28:47;8.17;;;2.20;;
4047;SDS011;2038;51.728;6.674;2023-01-08T11:31:38;5.13;;;2.17;;
4047;SDS011;2038;51.728;6.674;2023-01-08T11:34:24;10.03;;;2.47;;
4047;SDS011;2038;51.728;6.674;2023-01-08T11:37:09;9.53;;;1.80;;
4047;SDS011;2038;51.728;6.674;2023-01-08T11:39:45;12.93;;;2.10;;
4047;SDS011;2038;51.728;6.674;2023-01-08T11:51:34;4.47;;;1.97;;
4047;SDS011;2038;51.728;6.674;2023-01-08T11:59:50;4.93;;;2.30;;
4047;SDS011;2038;51.728;6.674;2023-01-08T12:14:12;7.17;;;2.20;;
4047;SDS011;2038;51.728;6.674;2023-01-08T12:28:08;4.47;;;2.90;;
4047;SDS011;2038;51.728;6.674;2023-01-08T12:34:09;4.27;;;2.43;;
4047;SDS011;2038;51.728;6.674;2023-01-08T12:36:44;3.73;;;2.50;;
4047;SDS011;2038;51.728;6.674;2023-01-08T12:39:17;3.60;;;2.30;;
4047;SDS011;2038;51.728;6.674;2023-01-08T12:41:52;4.63;;;2.40;;
4047;SDS011;2038;51.728;6.674;2023-01-08T12:44:37;4.70;;;2.30;;
4047;SDS011;2038;51.728;6.674;2023-01-08T12:47:12;6.70;;;2.63;;
4047;SDS011;2038;51.728;6.674;2023-01-08T12:49:53;4.20;;;2.40;;
4047;SDS011;2038;51.728;6.674;2023-01-08T12:52:54;6.20;;;2.70;;
4047;SDS011;2038;51.728;6.674;2023-01-08T12:56:06;4.13;;;2.67;;
4047;SDS011;2038;51.728;6.674;2023-01-08T13:01:56;7.93;;;2.20;;
4047;SDS011;2038;51.728;6.674;2023-01-08T13:04:54;5.57;;;1.70;;
4047;SDS011;2038;51.728;6.674;2023-01-08T13:07:27;4.87;;;2.17;;
4047;SDS011;2038;51.728;6.674;2023-01-08T13:10:18;3.33;;;2.40;;
4047;SDS011;2038;51.728;6.674;2023-01-08T13:12:52;7.07;;;1.63;;
4047;SDS011;2038;51.728;6.674;2023-01-08T13:15:23;4.40;;;1.87;;
4047;SDS011;2038;51.728;6.674;2023-01-08T13:17:53;3.17;;;2.13;;
4047;SDS011;2038;51.728;6.674;2023-01-08T13:20:24;2.37;;;1.60;;
4047;SDS011;2038;51.728;6.674;2023-01-08T13:22:54;7.63;;;2.17;;
4047;SDS011;2038;51.728;6.674;2023-01-08T13:27:55;3.43;;;1.77;;
4047;SDS011;2038;51.728;6.674;2023-01-08T13:30:33;4.53;;;1.90;;
4047;SDS011;2038;51.728;6.674;2023-01-08T13:36:13;7.73;;;2.03;;
4047;SDS011;2038;51.728;6.674;2023-01-08T13:39:03;3.87;;;2.53;;
4047;SDS011;2038;51.728;6.674;2023-01-08T13:41:57;2.93;;;1.50;;
4047;SDS011;2038;51.728;6.674;2023-01-08T13:44:28;18.13;;;3.03;;
4047;SDS011;2038;51.728;6.674;2023-01-08T13:47:00;5.33;;;1.40;;
4047;SDS011;2038;51.728;6.674;2023-01-08T13:49:41;1.67;;;1.57;;
4047;SDS011;2038;51.728;6.674;2023-01-08T13:52:25;3.53;;;1.47;;
4047;SDS011;2038;51.728;6.674;2023-01-08T13:55:03;3.20;;;1.70;;
4047;SDS011;2038;51.728;6.674;2023-01-08T13:57:41;2.97;;;1.83;;
4047;SDS011;2038;51.728;6.674;2023-01-08T14:00:24;2.83;;;1.37;;
4047;SDS011;2038;51.728;6.674;2023-01-08T14:02:59;4.40;;;1.47;;
4047;SDS011;2038;51.728;6.674;2023-01-08T14:05:29;3.33;;;1.30;;
4047;SDS011;2038;51.728;6.674;2023-01-08T14:08:00;1.57;;;1.27;;
4047;SDS011;2038;51.728;6.674;2023-01-08T14:10:27;5.13;;;1.67;;
4047;SDS011;2038;51.728;6.674;2023-01-08T14:12:55;3.63;;;1.70;;
4047;SDS011;2038;51.728;6.674;2023-01-08T14:15:32;2.30;;;1.63;;
4047;SDS011;2038;51.728;6.674;2023-01-08T14:18:02;6.80;;;1.60;;
4047;SDS011;2038;51.728;6.674;2023-01-08T14:20:30;5.33;;;1.63;;
4047;SDS011;2038;51.728;6.674;2023-01-08T14:23:02;3.27;;;1.73;;
4047;SDS011;2038;51.728;6.674;2023-01-08T14:25:48;2.70;;;1.50;;
4047;SDS011;2038;51.728;6.674;2023-01-08T14:28:16;4.00;;;1.53;;
4047;SDS011;2038;51.728;6.674;2023-01-08T14:30:52;3.23;;;1.23;;
4047;SDS011;2038;51.728;6.674;2023-01-08T14:33:25;3.90;;;1.17;;
4047;SDS011;2038;51.728;6.674;2023-01-08T14:35:58;1.70;;;1.50;;
4047;SDS011;2038;51.728;6.674;2023-01-08T14:38:29;4.00;;;1.87;;
4047;SDS011;2038;51.728;6.674;2023-01-08T14:40:57;3.03;;;1.50;;
4047;SDS011;2038;51.728;6.674;2023-01-08T14:43:32;5.03;;;1.73;;
4047;SDS011;2038;51.728;6.674;2023-01-08T14:46:25;3.53;;;1.70;;
4047;SDS011;2038;51.728;6.674;2023-01-08T14:48:54;4.87;;;1.67;;
4047;SDS011;2038;51.728;6.674;2023-01-08T14:51:22;4.50;;;1.30;;
4047;SDS011;2038;51.728;6.674;2023-01-08T14:53:55;8.10;;;1.83;;
4047;SDS011;2038;51.728;6.674;2023-01-08T14:56:29;4.57;;;1.30;;
4047;SDS011;2038;51.728;6.674;2023-01-08T14:58:59;3.83;;;1.03;;
4047;SDS011;2038;51.728;6.674;2023-01-08T15:01:33;1.73;;;1.50;;
4047;SDS011;2038;51.728;6.674;2023-01-08T15:04:04;4.97;;;1.73;;
4047;SDS011;2038;51.728;6.674;2023-01-08T15:06:42;5.47;;;1.67;;
4047;SDS011;2038;51.728;6.674;2023-01-08T15:09:24;5.00;;;1.30;;
4047;SDS011;2038;51.728;6.674;2023-01-08T15:11:55;4.53;;;1.73;;
4047;SDS011;2038;51.728;6.674;2023-01-08T15:14:26;3.37;;;1.70;;
4047;SDS011;2038;51.728;6.674;2023-01-08T15:17:11;12.30;;;3.27;;
4047;SDS011;2038;51.728;6.674;2023-01-08T15:19:45;1.63;;;1.40;;
4047;SDS011;2038;51.728;6.674;2023-01-08T15:22:18;1.50;;;1.33;;
4047;SDS011;2038;51.728;6.674;2023-01-08T15:25:04;3.17;;;1.43;;
4047;SDS011;2038;51.728;6.674;2023-01-08T15:27:39;2.30;;;1.43;;
4047;SDS011;2038;51.728;6.674;2023-01-08T15:30:21;2.60;;;1.47;;
4047;SDS011;2038;51.728;6.674;2023-01-08T15:33:05;2.67;;;1.33;;
4047;SDS011;2038;51.728;6.674;2023-01-08T15:35:42;1.83;;;1.63;;
4047;SDS011;2038;51.728;6.674;2023-01-08T15:38:08;1.83;;;1.23;;
4047;SDS011;2038;51.728;6.674;2023-01-08T15:40:34;2.10;;;1.57;;
4047;SDS011;2038;51.728;6.674;2023-01-08T15:43:00;3.47;;;1.77;;
4047;SDS011;2038;51.728;6.674;2023-01-08T15:45:37;3.20;;;2.20;;
4047;SDS011;2038;51.728;6.674;2023-01-08T15:48:09;2.40;;;1.50;;
4047;SDS011;2038;51.728;6.674;2023-01-08T15:50:37;3.43;;;1.97;;
4047;SDS011;2038;51.728;6.674;2023-01-08T15:53:11;3.77;;;3.03;;
4047;SDS011;2038;51.728;6.674;2023-01-08T15:55:42;3.63;;;3.30;;
4047;SDS011;2038;51.728;6.674;2023-01-08T15:58:10;3.63;;;3.30;;
4047;SDS011;2038;51.728;6.674;2023-01-08T16:00:39;3.40;;;3.10;;
4047;SDS011;2038;51.728;6.674;2023-01-08T16:03:08;2.53;;;2.33;;
4047;SDS011;2038;51.728;6.674;2023-01-08T16:05:38;3.10;;;2.23;;
4047;SDS011;2038;51.728;6.674;2023-01-08T16:08:04;4.50;;;1.70;;
4047;SDS011;2038;51.728;6.674;2023-01-08T16:10:31;3.20;;;1.90;;
4047;SDS011;2038;51.728;6.674;2023-01-08T16:12:58;3.83;;;2.13;;
4047;SDS011;2038;51.728;6.674;2023-01-08T16:15:25;3.50;;;2.60;;
4047;SDS011;2038;51.728;6.674;2023-01-08T16:17:52;3.33;;;2.30;;
4047;SDS011;2038;51.728;6.674;2023-01-08T16:20:19;4.03;;;2.63;;
4047;SDS011;2038;51.728;6.674;2023-01-08T16:22:45;3.20;;;2.17;;
4047;SDS011;2038;51.728;6.674;2023-01-08T16:25:11;2.53;;;2.07;;
4047;SDS011;2038;51.728;6.674;2023-01-08T16:27:38;2.00;;;1.53;;
4047;SDS011;2038;51.728;6.674;2023-01-08T16:30:05;2.83;;;1.50;;
4047;SDS011;2038;51.728;6.674;2023-01-08T16:32:36;2.50;;;2.13;;
4047;SDS011;2038;51.728;6.674;2023-01-08T16:35:02;3.40;;;2.00;;
4047;SDS011;2038;51.728;6.674;2023-01-08T16:37:29;2.80;;;2.00;;
4047;SDS011;2038;51.728;6.674;2023-01-08T16:39:55;2.67;;;1.97;;
4047;SDS011;2038;51.728;6.674;2023-01-08T16:42:22;13.23;;;3.90;;
4047;SDS011;2038;51.728;6.674;2023-01-08T16:44:48;3.43;;;2.03;;
4047;SDS011;2038;51.728;6.674;2023-01-08T16:47:14;2.13;;;2.03;;
4047;SDS011;2038;51.728;6.674;2023-01-08T16:49:40;3.53;;;2.17;;
4047;SDS011;2038;51.728;6.674;2023-01-08T16:52:06;2.97;;;2.03;;
4047;SDS011;2038;51.728;6.674;2023-01-08T16:54:33;6.00;;;2.23;;
4047;SDS011;2038;51.728;6.674;2023-01-08T16:57:00;5.17;;;2.70;;